createdAt,value
2019-05-06T00:01:12.180Z,3.40
2019-05-06T00:03:40.438Z,3.33
2019-05-06T00:06:08.416Z,3.40
2019-05-06T00:08:35.996Z,3.50
2019-05-06T00:11:04.895Z,3.40
2019-05-06T00:13:34.322Z,3.50
2019-05-06T00:16:03.913Z,3.40
2019-05-06T00:18:34.240Z,3.87
2019-05-06T00:21:04.718Z,3.73
2019-05-06T00:23:38.342Z,3.73
2019-05-06T00:26:40.864Z,3.30
2019-05-06T00:29:13.983Z,3.73
2019-05-06T00:31:44.016Z,3.67
2019-05-06T00:34:13.725Z,3.53
2019-05-06T00:36:43.518Z,3.20
2019-05-06T00:39:27.122Z,3.20
2019-05-06T00:42:03.900Z,3.10
2019-05-06T00:44:32.018Z,3.60
2019-05-06T00:47:00.096Z,3.70
2019-05-06T00:49:28.880Z,3.57
2019-05-06T00:51:57.587Z,3.80
2019-05-06T00:54:26.261Z,3.40
2019-05-06T00:56:59.579Z,3.20
2019-05-06T00:59:27.515Z,3.10
2019-05-06T01:01:55.041Z,3.40
2019-05-06T01:04:24.389Z,3.60
2019-05-06T01:06:54.288Z,3.90
2019-05-06T01:09:23.520Z,3.47
2019-05-06T01:11:54.169Z,3.30
2019-05-06T01:14:28.334Z,3.27
2019-05-06T01:16:55.870Z,3.37
2019-05-06T01:19:24.405Z,3.20
2019-05-06T01:21:53.884Z,3.30
2019-05-06T01:24:21.417Z,3.07
2019-05-06T01:26:49.063Z,3.30
2019-05-06T01:29:17.083Z,3.43
2019-05-06T01:31:46.068Z,3.20
2019-05-06T01:34:14.185Z,3.57
2019-05-06T01:36:43.731Z,3.50
2019-05-06T01:39:34.267Z,3.50
2019-05-06T01:42:24.679Z,3.30
2019-05-06T01:44:53.859Z,3.50
2019-05-06T01:47:23.777Z,3.23
2019-05-06T01:49:53.592Z,3.77
2019-05-06T01:52:20.865Z,3.50
2019-05-06T01:54:48.465Z,3.17
2019-05-06T01:57:16.764Z,5.17
2019-05-06T01:59:44.440Z,3.60
2019-05-06T02:02:14.138Z,4.80
2019-05-06T02:04:41.912Z,3.70
2019-05-06T02:07:09.916Z,3.97
2019-05-06T02:09:37.406Z,3.57
2019-05-06T02:12:04.930Z,3.67
2019-05-06T02:14:34.099Z,3.73
2019-05-06T02:17:03.676Z,3.87
2019-05-06T02:19:31.752Z,4.13
2019-05-06T02:22:06.537Z,3.47
2019-05-06T02:24:39.111Z,3.67
2019-05-06T02:27:07.073Z,3.50
2019-05-06T02:29:39.474Z,3.70
2019-05-06T02:32:27.033Z,3.80
2019-05-06T02:34:57.145Z,3.90
2019-05-06T02:37:36.286Z,3.93
2019-05-06T02:40:07.614Z,3.93
2019-05-06T02:42:36.841Z,4.17
2019-05-06T02:45:04.672Z,4.27
2019-05-06T02:47:42.998Z,4.07
2019-05-06T02:50:13.789Z,3.90
2019-05-06T02:52:43.944Z,4.20
2019-05-06T02:55:12.970Z,4.30
2019-05-06T02:57:43.666Z,4.43
2019-05-06T03:00:13.566Z,3.70
2019-05-06T03:02:44.895Z,3.57
2019-05-06T03:05:13.106Z,3.93
2019-05-06T03:07:43.234Z,3.63
2019-05-06T03:10:13.023Z,3.87
2019-05-06T03:12:43.014Z,3.83
2019-05-06T03:15:16.190Z,3.80
2019-05-06T03:17:43.234Z,3.77
2019-05-06T03:20:15.272Z,4.33
2019-05-06T03:23:05.223Z,3.90
2019-05-06T03:25:35.393Z,3.73
2019-05-06T03:28:04.156Z,3.93
2019-05-06T03:30:36.144Z,4.20
2019-05-06T03:33:30.221Z,4.07
2019-05-06T03:35:48.415Z,3.50
2019-05-06T03:38:03.851Z,4.00
2019-05-06T03:40:36.056Z,3.93
2019-05-06T03:43:02.807Z,3.90
2019-05-06T03:45:42.882Z,4.17
2019-05-06T03:48:15.550Z,3.90
2019-05-06T03:50:44.157Z,4.20
2019-05-06T03:53:14.030Z,3.90
2019-05-06T03:55:43.771Z,4.03
2019-05-06T03:58:13.366Z,4.20
2019-05-06T04:00:43.636Z,4.10
2019-05-06T04:03:13.846Z,4.27
2019-05-06T04:05:43.581Z,4.23
2019-05-06T04:08:12.755Z,4.50
2019-05-06T04:10:43.569Z,6.53
2019-05-06T04:13:13.463Z,6.13
2019-05-06T04:16:10.014Z,6.87
2019-05-06T04:18:40.036Z,5.10
2019-05-06T04:21:16.768Z,5.40
2019-05-06T04:24:04.530Z,4.80
2019-05-06T04:26:53.142Z,5.20
2019-05-06T04:29:20.071Z,4.63
2019-05-06T04:31:47.783Z,4.80
2019-05-06T04:34:19.593Z,4.90
2019-05-06T04:36:46.405Z,5.90
2019-05-06T04:39:14.452Z,4.80
2019-05-06T04:41:43.485Z,5.40
2019-05-06T04:44:13.838Z,5.50
2019-05-06T04:46:44.014Z,5.80
2019-05-06T04:49:14.838Z,5.80
2019-05-06T04:51:43.129Z,5.67
2019-05-06T04:54:13.048Z,5.20
2019-05-06T04:56:40.059Z,5.23
2019-05-06T04:59:08.928Z,5.93
2019-05-06T05:01:36.710Z,5.77
2019-05-06T05:04:22.261Z,5.63
2019-05-06T05:06:33.958Z,5.83
2019-05-06T05:09:02.814Z,5.73
2019-05-06T05:11:42.577Z,6.67
2019-05-06T05:14:44.912Z,5.23
2019-05-06T05:17:34.668Z,5.57
2019-05-06T05:20:02.464Z,5.97
2019-05-06T05:22:30.016Z,5.87
2019-05-06T05:24:59.464Z,5.53
2019-05-06T05:27:28.746Z,5.83
2019-05-06T05:30:01.794Z,5.70
2019-05-06T05:32:32.120Z,5.90
2019-05-06T05:35:03.530Z,6.57
2019-05-06T05:37:33.429Z,7.00
2019-05-06T05:40:03.070Z,6.30
2019-05-06T05:42:42.426Z,6.60
2019-05-06T05:45:12.723Z,6.70
2019-05-06T05:47:42.511Z,6.10
2019-05-06T05:50:23.496Z,6.10
2019-05-06T05:52:51.987Z,6.27
2019-05-06T05:55:21.865Z,6.53
2019-05-06T05:57:51.829Z,6.10
2019-05-06T06:00:22.363Z,5.93
2019-05-06T06:02:49.511Z,6.03
2019-05-06T06:05:17.354Z,6.23
2019-05-06T06:07:44.930Z,6.03
2019-05-06T06:10:34.588Z,6.43
2019-05-06T06:13:02.557Z,5.90
2019-05-06T06:15:59.609Z,6.43
2019-05-06T06:18:47.029Z,6.30
2019-05-06T06:21:36.603Z,6.20
2019-05-06T06:24:27.050Z,5.47
2019-05-06T06:26:54.772Z,6.27
2019-05-06T06:29:22.866Z,6.00
2019-05-06T06:32:10.116Z,5.77
2019-05-06T06:35:14.673Z,6.10
2019-05-06T06:37:59.943Z,5.90
2019-05-06T06:40:29.301Z,6.77
2019-05-06T06:43:07.277Z,7.37
2019-05-06T06:45:36.265Z,6.20
2019-05-06T06:48:04.469Z,6.00
2019-05-06T06:50:32.993Z,5.87
2019-05-06T06:53:03.067Z,6.93
2019-05-06T06:55:31.893Z,9.70
2019-05-06T06:58:18.057Z,10.60
2019-05-06T07:01:09.018Z,9.73
2019-05-06T07:03:43.175Z,11.10
2019-05-06T07:06:17.351Z,12.80
2019-05-06T07:08:45.554Z,8.97
2019-05-06T07:11:14.257Z,5.83
2019-05-06T07:13:52.942Z,7.30
2019-05-06T07:16:23.509Z,5.23
2019-05-06T07:18:52.616Z,5.70
2019-05-06T07:21:33.998Z,5.70
2019-05-06T07:24:02.188Z,5.57
2019-05-06T07:26:36.459Z,6.27
2019-05-06T07:29:16.766Z,7.30
2019-05-06T07:31:34.765Z,5.87
2019-05-06T07:34:03.066Z,6.83
2019-05-06T07:36:32.254Z,6.93
2019-05-06T07:39:04.175Z,5.70
2019-05-06T07:41:46.188Z,4.93
2019-05-06T07:44:24.240Z,9.70
2019-05-06T07:47:15.758Z,5.60
2019-05-06T07:49:43.569Z,5.47
2019-05-06T07:52:12.372Z,4.40
2019-05-06T07:54:42.257Z,4.20
2019-05-06T07:57:09.872Z,4.87
2019-05-06T07:59:37.845Z,4.10
2019-05-06T08:02:05.723Z,4.10
2019-05-06T08:04:33.349Z,3.83
2019-05-06T08:07:03.122Z,4.20
2019-05-06T08:09:32.596Z,4.83
2019-05-06T08:12:02.646Z,4.63
2019-05-06T08:14:43.233Z,3.90
2019-05-06T08:17:25.653Z,3.90
2019-05-06T08:19:53.184Z,3.70
2019-05-06T08:22:42.258Z,4.50
2019-05-06T08:25:12.074Z,5.33
2019-05-06T08:27:42.402Z,4.30
2019-05-06T08:30:12.673Z,4.37
2019-05-06T08:32:42.355Z,4.73
2019-05-06T08:35:10.070Z,5.70
2019-05-06T08:37:38.500Z,4.40
2019-05-06T08:40:06.449Z,4.10
2019-05-06T08:42:34.209Z,5.43
2019-05-06T08:45:02.321Z,3.73
2019-05-06T08:47:30.029Z,4.30
2019-05-06T08:50:04.468Z,4.00
2019-05-06T08:52:52.328Z,3.83
2019-05-06T08:55:27.378Z,4.87
2019-05-06T08:57:55.381Z,3.80
2019-05-06T09:00:23.121Z,3.80
2019-05-06T09:02:52.888Z,4.60
2019-05-06T09:05:22.254Z,3.90
2019-05-06T09:07:52.242Z,4.43
2019-05-06T09:10:19.664Z,4.77
2019-05-06T09:12:47.384Z,4.50
2019-05-06T09:15:15.436Z,4.10
2019-05-06T09:17:43.119Z,4.00
2019-05-06T09:20:12.896Z,4.03
2019-05-06T09:22:42.985Z,6.60
2019-05-06T09:25:12.871Z,5.03
2019-05-06T09:28:06.607Z,7.23
2019-05-06T09:30:40.591Z,7.20
2019-05-06T09:33:08.509Z,5.23
2019-05-06T09:35:36.542Z,4.73
2019-05-06T09:38:04.045Z,4.07
2019-05-06T09:40:31.993Z,4.20
2019-05-06T09:42:59.521Z,3.07
2019-05-06T09:45:27.102Z,2.60
2019-05-06T09:48:07.751Z,2.73
2019-05-06T09:50:39.011Z,2.37
2019-05-06T09:53:13.088Z,2.53
2019-05-06T09:55:58.741Z,2.80
2019-05-06T09:58:27.593Z,3.47
2019-05-06T10:00:57.208Z,3.40
2019-05-06T10:03:24.796Z,3.97
2019-05-06T10:05:53.156Z,3.92
2019-05-06T10:08:22.750Z,4.10
2019-05-06T10:10:56.939Z,4.50
2019-05-06T10:13:20.949Z,4.50
2019-05-06T10:15:48.732Z,4.05
2019-05-06T10:18:16.454Z,3.30
2019-05-06T10:20:45.348Z,3.13
2019-05-06T10:23:13.687Z,3.33
2019-05-06T10:25:43.616Z,3.00
2019-05-06T10:28:33.221Z,3.20
2019-05-06T10:31:02.029Z,3.00
2019-05-06T10:33:32.315Z,2.70
2019-05-06T10:36:03.724Z,2.80
2019-05-06T10:38:42.451Z,3.20
2019-05-06T10:41:15.705Z,3.20
2019-05-06T10:43:54.089Z,3.20
2019-05-06T10:46:22.568Z,3.10
2019-05-06T10:48:52.545Z,2.87
2019-05-06T10:51:25.780Z,3.03
2019-05-06T10:53:53.426Z,3.00
2019-05-06T10:56:52.516Z,3.40
2019-05-06T10:59:09.419Z,3.30
2019-05-06T11:01:39.603Z,4.33
2019-05-06T11:04:07.477Z,3.77
2019-05-06T11:06:35.374Z,2.83
2019-05-06T11:09:06.513Z,2.90
2019-05-06T11:11:38.422Z,2.60
2019-05-06T11:14:03.958Z,2.13
2019-05-06T11:16:33.285Z,3.40
2019-05-06T11:19:02.197Z,3.10
2019-05-06T11:21:32.777Z,2.80
2019-05-06T11:24:00.365Z,2.63
2019-05-06T11:26:28.623Z,2.53
2019-05-06T11:29:00.208Z,2.60
2019-05-06T11:31:46.118Z,2.53
2019-05-06T11:34:22.124Z,2.70
2019-05-06T11:36:52.703Z,2.50
2019-05-06T11:39:28.965Z,2.80
2019-05-06T11:42:15.373Z,2.70
2019-05-06T11:44:26.313Z,2.87
2019-05-06T11:46:53.980Z,2.33
2019-05-06T11:49:23.323Z,2.67
2019-05-06T11:51:51.389Z,3.57
2019-05-06T11:54:23.582Z,3.10
2019-05-06T11:56:55.154Z,2.20
2019-05-06T11:59:19.660Z,2.10
2019-05-06T12:01:57.417Z,2.43
2019-05-06T12:04:25.101Z,2.20
2019-05-06T12:07:09.243Z,2.60
2019-05-06T12:09:22.483Z,2.23
2019-05-06T12:11:52.638Z,2.70
2019-05-06T12:14:19.538Z,2.83
2019-05-06T12:16:47.509Z,3.10
2019-05-06T12:19:16.102Z,3.20
2019-05-06T12:21:44.049Z,2.70
2019-05-06T12:24:12.272Z,3.20
2019-05-06T12:26:42.709Z,2.70
2019-05-06T12:29:12.520Z,2.50
2019-05-06T12:31:42.161Z,2.17
2019-05-06T12:34:12.392Z,2.27
2019-05-06T12:36:39.869Z,2.30
2019-05-06T12:39:38.886Z,3.00
2019-05-06T12:42:27.322Z,3.30
2019-05-06T12:45:33.073Z,2.60
2019-05-06T12:48:06.804Z,2.70
2019-05-06T12:50:35.367Z,2.33
2019-05-06T12:53:03.248Z,2.20
2019-05-06T12:55:33.332Z,2.40
2019-05-06T12:58:02.985Z,2.13
2019-05-06T13:00:32.397Z,2.10
2019-05-06T13:03:02.112Z,2.60
2019-05-06T13:05:31.958Z,2.47
2019-05-06T13:07:59.592Z,2.30
2019-05-06T13:10:27.204Z,2.57
2019-05-06T13:13:01.445Z,2.40
2019-05-06T13:15:29.572Z,2.30
2019-05-06T13:17:57.116Z,2.63
2019-05-06T13:20:25.394Z,2.53
2019-05-06T13:23:20.724Z,2.93
2019-05-06T13:25:45.368Z,2.87
2019-05-06T13:28:13.780Z,2.50
2019-05-06T13:30:43.328Z,2.90
2019-05-06T13:33:28.220Z,2.60
2019-05-06T13:35:56.643Z,2.70
2019-05-06T13:38:24.419Z,2.30
2019-05-06T13:40:56.643Z,2.43
2019-05-06T13:43:40.116Z,2.47
2019-05-06T13:46:42.437Z,2.90
2019-05-06T13:49:38.425Z,3.83
2019-05-06T13:52:08.903Z,2.47
2019-05-06T13:54:36.818Z,2.23
2019-05-06T13:57:04.670Z,2.33
2019-05-06T13:59:35.782Z,2.57
2019-05-06T14:02:27.932Z,2.83
2019-05-06T14:04:55.583Z,2.97
2019-05-06T14:07:24.246Z,3.17
2019-05-06T14:09:53.192Z,3.97
2019-05-06T14:12:22.087Z,4.70
2019-05-06T14:14:49.776Z,3.60
2019-05-06T14:17:17.345Z,7.83
2019-05-06T14:19:45.049Z,3.20
2019-05-06T14:22:12.778Z,2.57
2019-05-06T14:24:44.101Z,2.80
2019-05-06T14:27:11.787Z,2.67
2019-05-06T14:30:07.390Z,3.00
2019-05-06T14:32:35.025Z,2.67
2019-05-06T14:35:03.385Z,2.80
2019-05-06T14:37:32.962Z,3.03
2019-05-06T14:40:02.456Z,2.50
2019-05-06T14:42:32.949Z,2.40
2019-05-06T14:45:00.948Z,2.40
2019-05-06T14:47:32.713Z,2.30
2019-05-06T14:50:00.571Z,2.30
2019-05-06T14:52:28.232Z,2.50
2019-05-06T14:55:09.685Z,2.37
2019-05-06T14:57:37.386Z,2.20
2019-05-06T15:00:07.061Z,2.37
2019-05-06T15:02:34.865Z,2.47
2019-05-06T15:05:03.093Z,3.47
2019-05-06T15:07:32.918Z,2.60
2019-05-06T15:10:16.320Z,2.37
2019-05-06T15:12:30.405Z,2.40
2019-05-06T15:14:58.339Z,2.40
2019-05-06T15:17:26.394Z,2.30
2019-05-06T15:19:53.957Z,2.20
2019-05-06T15:22:22.621Z,2.47
2019-05-06T15:24:53.680Z,2.20
2019-05-06T15:27:23.708Z,2.20
2019-05-06T15:29:54.286Z,2.13
2019-05-06T15:32:29.209Z,2.33
2019-05-06T15:35:17.234Z,2.77
2019-05-06T15:37:53.805Z,2.43
2019-05-06T15:40:31.839Z,2.73
2019-05-06T15:42:53.383Z,2.33
2019-05-06T15:45:21.971Z,2.30
2019-05-06T15:47:52.125Z,2.37
2019-05-06T15:50:19.363Z,2.10
2019-05-06T15:52:47.919Z,2.03
2019-05-06T15:55:15.508Z,2.40
2019-05-06T15:57:43.615Z,1.93
2019-05-06T16:00:15.350Z,2.30
2019-05-06T16:02:43.076Z,2.37
2019-05-06T16:05:18.364Z,2.20
2019-05-06T16:07:43.129Z,2.67
2019-05-06T16:10:13.132Z,3.47
2019-05-06T16:12:41.869Z,4.57
2019-05-06T16:15:12.913Z,2.50
2019-05-06T16:17:42.643Z,2.70
2019-05-06T16:20:12.893Z,2.47
2019-05-06T16:22:44.424Z,2.60
2019-05-06T16:25:13.367Z,2.40
2019-05-06T16:27:43.870Z,2.33
2019-05-06T16:30:13.150Z,2.57
2019-05-06T16:32:41.956Z,2.80
2019-05-06T16:35:11.951Z,2.50
2019-05-06T16:37:39.547Z,2.40
2019-05-06T16:40:08.493Z,3.07
2019-05-06T16:42:36.349Z,3.07
2019-05-06T16:45:06.793Z,2.33
2019-05-06T16:47:38.134Z,2.50
2019-05-06T16:50:08.585Z,2.53
2019-05-06T16:52:36.811Z,3.20
2019-05-06T16:55:05.995Z,2.53
2019-05-06T16:57:33.693Z,2.50
2019-05-06T17:00:02.986Z,2.37
2019-05-06T17:02:59.451Z,2.30
2019-05-06T17:05:56.158Z,2.40
2019-05-06T17:08:24.399Z,2.80
2019-05-06T17:10:54.052Z,2.60
2019-05-06T17:13:23.301Z,2.50
2019-05-06T17:15:52.918Z,2.63
2019-05-06T17:18:22.602Z,2.40
2019-05-06T17:20:49.882Z,2.33
2019-05-06T17:23:18.125Z,2.30
2019-05-06T17:25:46.026Z,1.90
2019-05-06T17:28:23.574Z,2.07
2019-05-06T17:31:16.766Z,2.17
2019-05-06T17:33:44.791Z,2.30
2019-05-06T17:36:14.205Z,2.30
2019-05-06T17:38:46.852Z,2.17
2019-05-06T17:41:14.550Z,2.07
2019-05-06T17:43:44.142Z,2.73
2019-05-06T17:46:13.120Z,4.17
2019-05-06T17:49:10.078Z,2.23
2019-05-06T17:52:02.800Z,2.30
2019-05-06T17:54:32.442Z,2.30
2019-05-06T17:57:03.846Z,2.10
2019-05-06T17:59:30.017Z,2.30
2019-05-06T18:01:59.994Z,2.23
2019-05-06T18:04:28.022Z,2.43
2019-05-06T18:06:56.280Z,2.50
2019-05-06T18:09:24.105Z,2.60
2019-05-06T18:11:58.871Z,3.23
2019-05-06T18:14:22.999Z,5.47
2019-05-06T18:16:50.809Z,2.87
2019-05-06T18:19:18.782Z,2.43
2019-05-06T18:21:46.715Z,2.13
2019-05-06T18:24:14.540Z,3.23
2019-05-06T18:26:42.208Z,3.37
2019-05-06T18:29:12.374Z,3.40
2019-05-06T18:31:42.492Z,2.80
2019-05-06T18:34:12.680Z,3.27
2019-05-06T18:36:40.354Z,3.67
2019-05-06T18:39:08.514Z,3.73
2019-05-06T18:41:36.271Z,3.77
2019-05-06T18:44:04.339Z,3.62
2019-05-06T18:46:32.398Z,3.50
2019-05-06T18:49:02.535Z,3.10
2019-05-06T18:51:30.357Z,2.90
2019-05-06T18:53:58.610Z,2.93
2019-05-06T18:56:26.628Z,2.93
2019-05-06T18:58:54.629Z,2.90
2019-05-06T19:01:23.246Z,2.60
2019-05-06T19:04:22.968Z,2.57
2019-05-06T19:06:59.019Z,2.83
2019-05-06T19:09:28.789Z,2.90
2019-05-06T19:11:56.774Z,2.80
2019-05-06T19:14:24.389Z,2.83
2019-05-06T19:16:55.320Z,2.93
2019-05-06T19:19:23.336Z,2.73
2019-05-06T19:21:52.391Z,2.97
2019-05-06T19:24:22.470Z,2.83
2019-05-06T19:26:50.107Z,3.70
2019-05-06T19:29:17.701Z,3.13
2019-05-06T19:31:45.331Z,3.53
2019-05-06T19:34:13.110Z,3.37
2019-05-06T19:36:42.335Z,3.27
2019-05-06T19:39:12.688Z,3.43
2019-05-06T19:41:40.983Z,3.10
2019-05-06T19:44:08.690Z,2.90
2019-05-06T19:46:36.972Z,3.10
2019-05-06T19:49:05.228Z,3.13
2019-05-06T19:51:33.680Z,3.10
2019-05-06T19:54:02.306Z,3.10
2019-05-06T19:56:30.325Z,3.13
2019-05-06T19:58:57.849Z,2.77
2019-05-06T20:01:25.469Z,2.77
2019-05-06T20:03:53.026Z,2.87
2019-05-06T20:06:41.248Z,3.07
2019-05-06T20:09:37.658Z,2.80
2019-05-06T20:12:12.159Z,2.80
2019-05-06T20:14:39.447Z,3.00
2019-05-06T20:17:07.861Z,2.83
2019-05-06T20:19:36.344Z,3.27
2019-05-06T20:22:04.029Z,3.37
2019-05-06T20:24:33.356Z,3.50
2019-05-06T20:27:07.410Z,3.20
2019-05-06T20:29:38.206Z,4.10
2019-05-06T20:32:05.255Z,3.57
2019-05-06T20:34:33.431Z,6.33
2019-05-06T20:37:02.062Z,6.37
2019-05-06T20:39:31.933Z,5.50
2019-05-06T20:42:00.294Z,5.30
2019-05-06T20:44:28.614Z,4.20
2019-05-06T20:46:56.482Z,4.23
2019-05-06T20:49:24.359Z,3.73
2019-05-06T20:51:52.474Z,3.93
2019-05-06T20:54:20.072Z,4.13
2019-05-06T20:56:48.548Z,3.83
2019-05-06T20:59:16.357Z,4.30
2019-05-06T21:01:43.908Z,4.50
2019-05-06T21:04:13.039Z,4.27
2019-05-06T21:06:43.461Z,4.53
2019-05-06T21:09:12.594Z,4.50
2019-05-06T21:11:42.109Z,4.20
2019-05-06T21:14:09.992Z,4.20
2019-05-06T21:16:39.587Z,4.40
2019-05-06T21:19:07.414Z,4.70
2019-05-06T21:21:35.338Z,4.27
2019-05-06T21:24:04.078Z,4.43
2019-05-06T21:26:32.983Z,4.40
2019-05-06T21:29:03.261Z,4.13
2019-05-06T21:31:35.217Z,4.20
2019-05-06T21:34:03.184Z,4.53
2019-05-06T21:36:31.493Z,4.63
2019-05-06T21:38:59.320Z,4.60
2019-05-06T21:41:27.351Z,4.20
2019-05-06T21:43:55.355Z,4.33
2019-05-06T21:46:23.047Z,4.40
2019-05-06T21:48:52.913Z,4.40
2019-05-06T21:51:22.257Z,4.33
2019-05-06T21:53:50.311Z,3.90
2019-05-06T21:56:18.306Z,4.60
2019-05-06T21:58:46.095Z,4.30
2019-05-06T22:01:13.796Z,4.60
2019-05-06T22:03:43.378Z,4.67
2019-05-06T22:06:12.989Z,4.77
2019-05-06T22:08:42.360Z,4.57
2019-05-06T22:11:14.278Z,4.93
2019-05-06T22:13:42.723Z,5.47
2019-05-06T22:16:12.262Z,4.93
2019-05-06T22:18:40.160Z,5.40
2019-05-06T22:21:18.847Z,5.30
2019-05-06T22:24:04.338Z,5.17
2019-05-06T22:26:32.607Z,5.60
2019-05-06T22:29:02.031Z,5.20
2019-05-06T22:31:29.624Z,5.70
2019-05-06T22:33:57.760Z,5.77
2019-05-06T22:36:26.069Z,6.20
2019-05-06T22:38:54.104Z,6.80
2019-05-06T22:41:24.845Z,6.13
2019-05-06T22:43:53.165Z,6.67
2019-05-06T22:46:23.392Z,6.00
2019-05-06T22:48:54.081Z,5.83
2019-05-06T22:51:22.882Z,5.03
2019-05-06T22:53:53.015Z,5.20
2019-05-06T22:56:22.624Z,5.93
2019-05-06T22:58:52.232Z,5.77
2019-05-06T23:01:37.698Z,5.13
2019-05-06T23:04:06.556Z,4.50
2019-05-06T23:06:34.129Z,5.40
2019-05-06T23:09:02.796Z,5.20
2019-05-06T23:11:32.850Z,5.20
2019-05-06T23:14:02.733Z,5.30
2019-05-06T23:16:32.913Z,5.60
2019-05-06T23:19:02.248Z,5.67
2019-05-06T23:21:29.908Z,5.53
2019-05-06T23:23:57.485Z,5.60
2019-05-06T23:26:25.354Z,5.17
2019-05-06T23:28:54.462Z,5.63
2019-05-06T23:31:24.330Z,5.30
2019-05-06T23:33:53.372Z,5.40
2019-05-06T23:36:22.873Z,5.87
2019-05-06T23:39:27.013Z,5.17
2019-05-06T23:42:32.316Z,5.23
2019-05-06T23:45:36.432Z,4.70
2019-05-06T23:51:48.715Z,5.10
2019-05-06T23:54:53.124Z,5.33
2019-05-06T23:57:19.882Z,5.60
2019-05-06T23:59:47.698Z,5.50
